»·PEaware :: UAL892 KPDX-KSFO

UAL892 :: KPDX-KSFO

FLIGHT INFORMATION

Flight Status: Arrived
Operator:
United Airlines
More flights by this operator :: More flights under this callsign
Pilot: Max W. (2591)
Aircraft: BOEING 727-100
(B721)
More flights by this aircraft type
Origin: KPDX Portland Intl
United States
Destination: KSFO San Francisco Intl
United States
More flights between these airports :: More routes between these airports
Route: +PTLD1 EUG RBG GOLDN7
File this flight plan on PilotEdge
Remarks:
Altitude:
(Current/Filed)
33,000ft
Speed:
(Current/Filed)
450kts
Departed: 12-Aug-18 01:14 PM
Arrived: 12-Aug-18 02:44 PM
Distance/Time
Traveled:
478nm/1:30
Distance/Time
To Go:
Arrived

Flight Plot

Page will automatically refresh every two minutes.

Flight plan parsing failed; only flown route is shown


Map Options




Map Legend


Flown Route
Filed Route
Departure Airport
Arrival Airport
Navaid (VOR, NDB)
Fix

Horizontal Profiles

Position Reports

Time Latitude Longitude Heading Altitude Ground
Speed
12-Aug-18 12:51 45.590077 -122.591022 209 27ft 0kts
12-Aug-18 12:52 45.590077 -122.591022 209 27ft 0kts
12-Aug-18 12:53 45.590077 -122.591022 209 27ft 0kts
12-Aug-18 12:54 45.590077 -122.591022 209 27ft 0kts
12-Aug-18 12:55 45.590077 -122.591022 209 27ft 0kts
12-Aug-18 12:56 45.590077 -122.591022 209 27ft 0kts
12-Aug-18 12:57 45.590077 -122.591022 209 27ft 0kts
12-Aug-18 12:58 45.590077 -122.591022 209 27ft 0kts
12-Aug-18 12:59 45.590077 -122.591022 209 27ft 0kts
12-Aug-18 13:00 45.590077 -122.591022 209 27ft 0kts
12-Aug-18 13:01 45.590077 -122.591022 209 27ft 0kts
12-Aug-18 13:02 45.590077 -122.591022 209 28ft 0kts
12-Aug-18 13:03 45.590077 -122.591022 209 28ft 0kts
12-Aug-18 13:04 45.590273 -122.590864 209 28ft 2kts
12-Aug-18 13:05 45.590567 -122.590185 278 28ft 2kts
12-Aug-18 13:06 45.590491 -122.589900 299 27ft 0kts
12-Aug-18 13:07 45.590491 -122.589900 299 27ft 0kts
12-Aug-18 13:08 45.590828 -122.590722 300 28ft 0kts
12-Aug-18 13:09 45.591770 -122.592440 356 28ft 9kts
12-Aug-18 13:10 45.590914 -122.588949 119 28ft 15kts
12-Aug-18 13:11 45.588744 -122.583366 118 27ft 18kts
12-Aug-18 13:12 45.586060 -122.576480 120 27ft 21kts
12-Aug-18 13:13 45.583061 -122.568710 119 27ft 20kts
12-Aug-18 13:14 45.582758 -122.567432 63 28ft 7kts
12-Aug-18 13:15 45.592300 -122.589089 299 621ft 166kts
12-Aug-18 13:16 45.617325 -122.650827 300 3915ft 210kts
12-Aug-18 13:17 45.648538 -122.731524 290 6834ft 281kts
12-Aug-18 13:18 45.607891 -122.814256 190 10781ft 306kts
12-Aug-18 13:19 45.523306 -122.836054 190 14153ft 325kts
12-Aug-18 13:20 45.432294 -122.859857 192 17255ft 343kts
12-Aug-18 13:21 45.337166 -122.886361 193 20010ft 358kts
12-Aug-18 13:22 45.238428 -122.914343 194 22486ft 369kts
12-Aug-18 13:23 45.136769 -122.942969 194 24731ft 378kts
12-Aug-18 13:24 45.034915 -122.971431 195 27091ft 374kts
12-Aug-18 13:25 44.933579 -122.999829 195 29072ft 373kts
12-Aug-18 13:26 44.831153 -123.028059 195 30463ft 383kts
12-Aug-18 13:27 44.726237 -123.057042 195 31787ft 390kts
12-Aug-18 13:28 44.619208 -123.086621 195 33007ft 396kts
12-Aug-18 13:29 44.510863 -123.116461 195 34113ft 401kts
12-Aug-18 13:30 44.400921 -123.146611 195 35019ft 407kts
12-Aug-18 13:31 44.289369 -123.177085 195 35839ft 413kts
12-Aug-18 13:32 44.175513 -123.208090 195 36158ft 426kts
12-Aug-18 13:33 44.056122 -123.228099 188 36156ft 443kts
12-Aug-18 13:34 43.931924 -123.243386 189 36153ft 455kts
12-Aug-18 13:35 43.807446 -123.261107 190 36155ft 463kts
12-Aug-18 13:36 43.679624 -123.279560 190 36134ft 466kts
12-Aug-18 13:37 43.552184 -123.298082 190 36119ft 463kts
12-Aug-18 13:38 43.424898 -123.316748 188 36113ft 461kts
12-Aug-18 13:39 43.298981 -123.298215 174 36127ft 460kts
12-Aug-18 13:40 43.173128 -123.268522 175 36115ft 460kts
12-Aug-18 13:41 43.047549 -123.239044 175 36114ft 460kts
12-Aug-18 13:42 42.921746 -123.209569 175 36114ft 460kts
12-Aug-18 13:43 42.798541 -123.200815 192 36115ft 447kts
12-Aug-18 13:44 42.676727 -123.231036 194 36101ft 447kts
12-Aug-18 13:45 42.554821 -123.261593 194 36091ft 447kts
12-Aug-18 13:46 42.439138 -123.314288 195 36091ft 443kts
12-Aug-18 13:47 42.315806 -123.328486 185 36088ft 449kts
12-Aug-18 13:48 42.191202 -123.328327 183 36087ft 451kts
12-Aug-18 13:49 42.066069 -123.325852 183 36086ft 451kts
12-Aug-18 13:50 41.941039 -123.322995 183 36085ft 451kts
12-Aug-18 13:51 41.819586 -123.320157 183 36093ft 451kts
12-Aug-18 13:52 41.694301 -123.317372 183 36087ft 452kts
12-Aug-18 13:53 41.569269 -123.312332 186 36077ft 448kts
12-Aug-18 13:54 41.444964 -123.319996 186 36076ft 449kts
12-Aug-18 13:55 41.320638 -123.327718 186 36075ft 449kts
12-Aug-18 13:56 41.196055 -123.335385 186 36072ft 450kts
12-Aug-18 13:57 41.071664 -123.343672 192 36057ft 447kts
12-Aug-18 13:58 40.959939 -123.406874 208 36066ft 439kts
12-Aug-18 13:59 40.850798 -123.461712 192 36075ft 447kts
12-Aug-18 14:00 40.726416 -123.464367 181 36071ft 455kts
12-Aug-18 14:01 40.602427 -123.452323 179 36071ft 458kts
12-Aug-18 14:02 40.476169 -123.437811 179 36070ft 460kts
12-Aug-18 14:03 40.348987 -123.422914 179 36069ft 461kts
12-Aug-18 14:04 40.221354 -123.407988 179 36069ft 462kts
12-Aug-18 14:05 40.093822 -123.393129 179 36045ft 464kts
12-Aug-18 14:06 39.965133 -123.378191 179 35958ft 466kts
12-Aug-18 14:07 39.839929 -123.363807 179 35953ft 467kts
12-Aug-18 14:08 39.711150 -123.349037 179 35953ft 468kts
12-Aug-18 14:09 39.581384 -123.334152 179 35952ft 468kts
12-Aug-18 14:10 39.452474 -123.319386 179 36043ft 458kts
12-Aug-18 14:11 39.329713 -123.305264 179 34473ft 438kts
12-Aug-18 14:12 39.210732 -123.291925 179 32615ft 426kts
12-Aug-18 14:13 39.094585 -123.278793 179 30787ft 415kts
12-Aug-18 14:14 38.984972 -123.262101 189 26178ft 401kts
12-Aug-18 14:15 38.881091 -123.265276 173 24890ft 389kts
12-Aug-18 14:16 38.778723 -123.226806 164 23379ft 384kts
12-Aug-18 14:17 38.680562 -123.178401 162 21943ft 376kts
12-Aug-18 14:18 38.584739 -123.128936 161 20541ft 367kts
12-Aug-18 14:19 38.491495 -123.080494 161 19204ft 359kts
12-Aug-18 14:20 38.400783 -123.033351 160 18286ft 356kts
12-Aug-18 14:21 38.307228 -122.984984 160 17411ft 371kts
12-Aug-18 14:22 38.210636 -122.935092 159 16524ft 380kts
12-Aug-18 14:23 38.112339 -122.884508 159 15628ft 381kts
12-Aug-18 14:24 38.030058 -122.805848 140 14821ft 367kts
12-Aug-18 14:25 37.956134 -122.730746 141 10959ft 324kts
12-Aug-18 14:26 37.887741 -122.658654 141 10972ft 323kts
12-Aug-18 14:27 37.820725 -122.588209 140 11006ft 305kts
12-Aug-18 14:28 37.757578 -122.520737 140 11028ft 294kts
12-Aug-18 14:29 37.695242 -122.454662 140 11014ft 292kts
12-Aug-18 14:30 37.640031 -122.395570 141 10034ft 244kts
12-Aug-18 14:31 37.583139 -122.350059 151 7183ft 252kts
12-Aug-18 14:32 37.533438 -122.313411 151 7021ft 252kts
12-Aug-18 14:33 37.465258 -122.263774 151 7014ft 233kts
12-Aug-18 14:34 37.426568 -122.221250 113 7032ft 225kts
12-Aug-18 14:35 37.403587 -122.147425 111 7004ft 232kts
12-Aug-18 14:36 37.396698 -122.055197 39 6011ft 244kts
12-Aug-18 14:37 37.446291 -122.060051 326 5879ft 225kts
12-Aug-18 14:38 37.504826 -122.110209 315 4059ft 217kts
12-Aug-18 14:39 37.529488 -122.160202 292 3264ft 188kts
12-Aug-18 14:40 37.550885 -122.215761 299 2635ft 173kts
12-Aug-18 14:41 37.577495 -122.277434 299 1443ft 149kts
12-Aug-18 14:42 37.591793 -122.311200 297 901ft 127kts
12-Aug-18 14:43 37.607276 -122.347852 298 246ft 116kts
12-Aug-18 14:44 37.618898 -122.375819 282 24ft 43kts
12-Aug-18 14:45 37.618930 -122.380093 279 24ft 13kts
12-Aug-18 14:46 37.618814 -122.382797 306 24ft 12kts
12-Aug-18 14:47 37.619193 -122.383528 290 24ft 0kts
12-Aug-18 14:48 37.619193 -122.383528 290 24ft 0kts
12-Aug-18 14:49 37.619193 -122.383528 290 24ft 0kts

Navigation Log

Ident Type
Flight plan parsing failed, navigation log unavailable